createdAt,value
2024-03-07T00:01:51.502Z,3.50
2024-03-07T00:04:23.397Z,3.54
2024-03-07T00:06:55.216Z,3.51
2024-03-07T00:09:27.081Z,3.48
2024-03-07T00:11:59.121Z,3.39
2024-03-07T00:14:31.375Z,3.39
2024-03-07T00:17:04.030Z,3.44
2024-03-07T00:19:36.173Z,3.33
2024-03-07T00:22:08.158Z,3.28
2024-03-07T00:24:39.927Z,3.24
2024-03-07T00:27:12.427Z,3.20
2024-03-07T00:29:44.968Z,3.12
2024-03-07T00:32:16.921Z,3.21
2024-03-07T00:34:49.113Z,3.35
2024-03-07T00:37:21.117Z,3.44
2024-03-07T00:39:53.080Z,3.51
2024-03-07T00:42:25.504Z,3.50
2024-03-07T00:44:58.599Z,3.48
2024-03-07T00:47:30.597Z,3.44
2024-03-07T00:50:02.723Z,3.43
2024-03-07T00:52:34.609Z,3.45
2024-03-07T00:55:10.570Z,3.44
2024-03-07T00:57:42.586Z,3.45
2024-03-07T01:00:18.617Z,3.43
2024-03-07T01:02:50.782Z,3.48
2024-03-07T01:05:23.120Z,3.54
2024-03-07T01:07:56.735Z,3.44
2024-03-07T01:10:29.626Z,3.35
2024-03-07T01:13:03.369Z,3.48
2024-03-07T01:15:36.940Z,3.34
2024-03-07T01:18:09.284Z,3.29
2024-03-07T01:20:39.879Z,3.31
2024-03-07T01:23:12.156Z,3.30
2024-03-07T01:25:44.238Z,3.31
2024-03-07T01:28:18.303Z,3.28
2024-03-07T01:30:50.208Z,3.26
2024-03-07T01:33:22.443Z,3.20
2024-03-07T01:35:54.429Z,3.24
2024-03-07T01:38:26.597Z,3.17
2024-03-07T01:40:58.485Z,3.20
2024-03-07T01:43:32.372Z,3.24
2024-03-07T01:46:06.027Z,3.27
2024-03-07T01:48:39.624Z,3.17
2024-03-07T01:51:12.010Z,3.11
2024-03-07T01:53:44.074Z,3.10
2024-03-07T01:56:16.136Z,3.12
2024-03-07T01:58:51.795Z,3.08
2024-03-07T02:01:23.843Z,2.99
2024-03-07T02:03:56.062Z,3.04
2024-03-07T02:06:30.322Z,2.98
2024-03-07T02:09:03.729Z,2.91
2024-03-07T02:11:35.932Z,2.96
2024-03-07T02:14:08.061Z,3.10
2024-03-07T02:16:40.683Z,3.13
2024-03-07T02:19:13.063Z,3.04
2024-03-07T02:21:45.312Z,2.96
2024-03-07T02:24:17.477Z,3.02
2024-03-07T02:26:49.331Z,2.94
2024-03-07T02:29:21.724Z,3.00
2024-03-07T02:31:53.705Z,2.97
2024-03-07T02:34:28.195Z,3.03
2024-03-07T02:37:00.348Z,3.13
2024-03-07T02:39:32.262Z,3.14
2024-03-07T02:42:04.288Z,3.11
2024-03-07T02:44:36.224Z,3.09
2024-03-07T02:47:08.857Z,3.02
2024-03-07T02:49:39.162Z,2.95
2024-03-07T02:52:11.653Z,2.91
2024-03-07T02:54:43.838Z,2.95
2024-03-07T02:57:15.740Z,3.04
2024-03-07T02:59:47.922Z,2.95
2024-03-07T03:02:19.961Z,2.82
2024-03-07T03:04:52.211Z,2.79
2024-03-07T03:07:24.747Z,2.85
2024-03-07T03:09:56.595Z,2.78
2024-03-07T03:12:28.396Z,2.66
2024-03-07T03:15:00.304Z,2.61
2024-03-07T03:17:33.451Z,2.57
2024-03-07T03:20:16.080Z,2.51
2024-03-07T03:25:24.397Z,2.52
2024-03-07T03:27:56.453Z,2.46
2024-03-07T03:30:28.427Z,2.31
2024-03-07T03:33:00.766Z,2.20
2024-03-07T03:35:32.806Z,2.25
2024-03-07T03:38:05.331Z,2.34
2024-03-07T03:40:38.055Z,2.39
2024-03-07T03:43:10.061Z,2.39
2024-03-07T03:45:41.926Z,2.33
2024-03-07T03:48:14.615Z,2.20
2024-03-07T03:50:48.022Z,2.13
2024-03-07T03:53:20.034Z,2.13
2024-03-07T03:55:52.194Z,2.22
2024-03-07T03:58:24.196Z,2.26
2024-03-07T04:00:56.336Z,2.21
2024-03-07T04:03:28.751Z,2.15
2024-03-07T04:06:00.817Z,2.12
2024-03-07T04:08:33.121Z,2.14
2024-03-07T04:11:06.459Z,2.03
2024-03-07T04:13:38.530Z,1.85
2024-03-07T04:16:10.787Z,1.77
2024-03-07T04:18:44.123Z,1.67
2024-03-07T04:21:17.098Z,1.60
2024-03-07T04:23:49.094Z,1.61
2024-03-07T04:26:21.498Z,1.65
2024-03-07T04:28:53.310Z,1.61
2024-03-07T04:31:25.287Z,1.66
2024-03-07T04:33:57.846Z,1.62
2024-03-07T04:36:30.987Z,1.67
2024-03-07T04:39:05.621Z,1.62
2024-03-07T04:41:37.961Z,1.64
2024-03-07T04:44:09.819Z,1.56
2024-03-07T04:46:45.323Z,1.61
2024-03-07T04:49:17.306Z,1.60
2024-03-07T04:51:49.248Z,1.63
2024-03-07T04:54:21.388Z,1.47
2024-03-07T04:56:54.621Z,1.45
2024-03-07T04:59:26.884Z,1.43
2024-03-07T05:01:59.273Z,1.48
2024-03-07T05:04:31.731Z,1.38
2024-03-07T05:07:04.350Z,1.43
2024-03-07T05:09:35.063Z,1.35
2024-03-07T05:12:07.649Z,1.29
2024-03-07T05:14:38.060Z,1.41
2024-03-07T05:17:10.605Z,1.47
2024-03-07T05:19:43.082Z,1.48
2024-03-07T05:22:17.168Z,1.35
2024-03-07T05:24:51.364Z,1.44
2024-03-07T05:27:23.303Z,1.43
2024-03-07T05:29:56.624Z,1.48
2024-03-07T05:32:30.089Z,1.46
2024-03-07T05:35:02.304Z,1.57
2024-03-07T05:37:34.094Z,1.58
2024-03-07T05:40:08.842Z,1.55
2024-03-07T05:42:40.803Z,1.60
2024-03-07T05:45:16.016Z,1.56
2024-03-07T05:47:48.657Z,1.50
2024-03-07T05:50:21.180Z,1.45
2024-03-07T05:52:53.322Z,1.49
2024-03-07T05:55:25.341Z,1.54
2024-03-07T05:57:57.487Z,1.52
2024-03-07T06:00:29.683Z,1.62
2024-03-07T06:03:01.938Z,1.58
2024-03-07T06:05:34.015Z,1.49
2024-03-07T06:08:08.076Z,1.52
2024-03-07T06:10:42.328Z,1.50
2024-03-07T06:13:16.530Z,1.59
2024-03-07T06:15:49.854Z,1.68
2024-03-07T06:18:22.035Z,1.71
2024-03-07T06:20:53.993Z,1.79
2024-03-07T06:23:25.935Z,1.76
2024-03-07T06:25:59.778Z,1.82
2024-03-07T06:28:31.973Z,1.84
2024-03-07T06:31:08.737Z,1.94
2024-03-07T06:33:40.964Z,1.92
2024-03-07T06:36:13.108Z,2.01
2024-03-07T06:38:45.065Z,2.04
2024-03-07T06:41:17.279Z,2.08
2024-03-07T06:43:50.782Z,2.17
2024-03-07T06:46:23.195Z,2.15
2024-03-07T06:48:55.153Z,2.17
2024-03-07T06:51:27.259Z,2.18
2024-03-07T06:53:59.975Z,2.26
2024-03-07T06:56:32.390Z,2.30
2024-03-07T06:59:05.779Z,2.39
2024-03-07T07:01:38.574Z,2.41
2024-03-07T07:04:10.014Z,2.46
2024-03-07T07:06:44.000Z,2.40
2024-03-07T07:09:20.170Z,2.47
2024-03-07T07:11:52.496Z,2.59
2024-03-07T07:14:24.984Z,2.67
2024-03-07T07:16:57.553Z,2.73
2024-03-07T07:19:29.554Z,2.73
2024-03-07T07:22:01.464Z,2.73
2024-03-07T07:24:35.775Z,2.71
2024-03-07T07:27:09.331Z,2.78
2024-03-07T07:29:41.509Z,2.91
2024-03-07T07:32:13.844Z,2.97
2024-03-07T07:34:45.389Z,3.03
2024-03-07T07:37:17.508Z,3.09
2024-03-07T07:39:49.345Z,3.18
2024-03-07T07:42:21.384Z,3.26
2024-03-07T07:44:53.392Z,3.30
2024-03-07T07:47:25.743Z,3.38
2024-03-07T07:49:57.692Z,3.37
2024-03-07T07:52:30.748Z,3.41
2024-03-07T07:55:02.916Z,3.40
2024-03-07T07:57:34.842Z,3.36
2024-03-07T08:00:10.345Z,3.36
2024-03-07T08:02:44.941Z,3.45
2024-03-07T08:05:19.111Z,3.58
2024-03-07T08:07:51.852Z,3.72
2024-03-07T08:10:24.326Z,3.71
2024-03-07T08:12:56.301Z,3.75
2024-03-07T08:15:29.609Z,3.75
2024-03-07T08:18:02.712Z,3.73
2024-03-07T08:20:34.872Z,3.84
2024-03-07T08:23:07.838Z,3.97
2024-03-07T08:25:40.510Z,4.08
2024-03-07T08:28:13.015Z,4.07
2024-03-07T08:30:45.714Z,4.08
2024-03-07T08:33:17.736Z,4.11
2024-03-07T08:35:51.042Z,4.18
2024-03-07T08:38:22.960Z,4.27
2024-03-07T08:40:55.739Z,4.34
2024-03-07T08:43:28.094Z,4.40
2024-03-07T08:46:00.407Z,4.50
2024-03-07T08:48:32.369Z,4.52
2024-03-07T08:51:04.550Z,4.58
2024-03-07T08:53:37.393Z,4.68
2024-03-07T08:56:09.769Z,4.79
2024-03-07T08:58:41.734Z,4.89
2024-03-07T09:01:13.721Z,4.94
2024-03-07T09:03:45.573Z,4.98
2024-03-07T09:06:17.482Z,4.99
2024-03-07T09:08:49.376Z,5.06
2024-03-07T09:11:23.519Z,5.16
2024-03-07T09:13:55.499Z,5.19
2024-03-07T09:16:27.922Z,5.21
2024-03-07T09:18:59.809Z,5.23
2024-03-07T09:21:31.808Z,5.26
2024-03-07T09:24:04.169Z,5.32
2024-03-07T09:26:36.941Z,5.43
2024-03-07T09:29:07.838Z,5.47
2024-03-07T09:31:41.515Z,5.56
2024-03-07T09:34:14.145Z,5.56
2024-03-07T09:36:44.520Z,5.63
2024-03-07T09:39:16.863Z,5.68
2024-03-07T09:41:48.880Z,5.78
2024-03-07T09:44:28.138Z,5.89
2024-03-07T09:47:06.078Z,6.00
2024-03-07T09:49:37.941Z,6.08
2024-03-07T09:52:12.799Z,6.11
2024-03-07T09:54:45.316Z,6.10
2024-03-07T09:57:18.369Z,6.08
2024-03-07T09:59:51.297Z,6.07
2024-03-07T10:02:24.750Z,6.16
2024-03-07T10:04:58.324Z,6.23
2024-03-07T10:07:30.508Z,6.31
2024-03-07T10:10:11.021Z,6.26
2024-03-07T10:12:43.340Z,6.46
2024-03-07T10:15:18.561Z,6.53
2024-03-07T10:17:51.309Z,6.60
2024-03-07T10:20:23.922Z,6.75
2024-03-07T10:22:56.658Z,6.84
2024-03-07T10:25:30.236Z,6.96
2024-03-07T10:28:05.367Z,7.02
2024-03-07T10:30:45.627Z,7.15
2024-03-07T10:33:17.799Z,7.37
2024-03-07T10:35:51.754Z,7.39
2024-03-07T10:38:23.755Z,7.48
2024-03-07T10:40:57.504Z,7.42
2024-03-07T10:43:31.769Z,7.48
2024-03-07T10:46:10.717Z,7.54
2024-03-07T10:48:44.964Z,7.75
2024-03-07T10:51:28.379Z,8.02
2024-03-07T10:54:09.127Z,8.18
2024-03-07T10:56:55.367Z,8.26
2024-03-07T10:59:29.517Z,8.35
2024-03-07T11:02:13.596Z,8.36
2024-03-07T11:04:46.424Z,8.45
2024-03-07T11:07:19.260Z,8.51
2024-03-07T11:09:53.074Z,8.46
2024-03-07T11:12:29.745Z,8.55
2024-03-07T11:15:02.104Z,8.57
2024-03-07T11:17:35.322Z,8.64
2024-03-07T11:20:27.095Z,8.59
2024-03-07T11:22:59.085Z,8.86
2024-03-07T11:25:31.785Z,8.97
2024-03-07T11:28:04.429Z,8.99
2024-03-07T11:30:36.424Z,9.01
2024-03-07T11:33:13.278Z,8.94
2024-03-07T11:35:54.056Z,8.97
2024-03-07T11:38:35.487Z,9.03
2024-03-07T11:41:09.751Z,9.15
2024-03-07T11:43:43.309Z,9.06
2024-03-07T11:46:18.407Z,9.18
2024-03-07T11:48:50.748Z,9.19
2024-03-07T11:51:26.304Z,9.30
2024-03-07T11:53:59.780Z,9.41
2024-03-07T11:56:32.041Z,9.51
2024-03-07T11:59:05.638Z,9.52
2024-03-07T12:01:38.910Z,9.54
2024-03-07T12:04:16.992Z,9.54
2024-03-07T12:06:55.443Z,9.65
2024-03-07T12:09:27.646Z,9.60
2024-03-07T12:12:00.680Z,9.57
2024-03-07T12:14:35.203Z,9.61
2024-03-07T12:17:07.676Z,9.66
2024-03-07T12:19:40.128Z,9.81
2024-03-07T12:22:14.105Z,9.75
2024-03-07T12:24:48.095Z,9.72
2024-03-07T12:27:21.433Z,9.73
2024-03-07T12:32:27.792Z,9.65
2024-03-07T12:35:00.153Z,9.77
2024-03-07T12:37:36.909Z,9.65
2024-03-07T12:40:20.233Z,9.72
2024-03-07T12:42:55.331Z,9.87
2024-03-07T12:45:29.574Z,10.04
2024-03-07T12:48:06.051Z,9.91
2024-03-07T12:50:39.855Z,9.88
2024-03-07T12:53:13.159Z,9.96
2024-03-07T12:55:45.839Z,10.00
2024-03-07T12:58:16.772Z,9.99
2024-03-07T13:00:48.764Z,10.00
2024-03-07T13:03:20.946Z,9.94
2024-03-07T13:05:53.013Z,9.99
2024-03-07T13:08:27.820Z,9.91
2024-03-07T13:11:01.706Z,9.92
2024-03-07T13:13:35.235Z,9.98
2024-03-07T13:16:07.971Z,9.97
2024-03-07T13:18:40.276Z,9.87
2024-03-07T13:21:13.105Z,9.96
2024-03-07T13:23:45.284Z,9.84
2024-03-07T13:26:25.681Z,9.84
2024-03-07T13:29:01.670Z,9.76
2024-03-07T13:31:34.686Z,9.78
2024-03-07T13:34:14.248Z,9.91
2024-03-07T13:36:47.327Z,9.91
2024-03-07T13:39:20.062Z,9.88
2024-03-07T13:41:53.354Z,9.95
2024-03-07T13:44:26.330Z,9.90
2024-03-07T13:47:01.082Z,9.96
2024-03-07T13:49:35.320Z,10.04
2024-03-07T13:52:19.660Z,9.93
2024-03-07T13:54:55.975Z,9.97
2024-03-07T13:57:41.472Z,9.94
2024-03-07T14:00:35.907Z,9.74
2024-03-07T14:03:41.359Z,9.85
2024-03-07T14:06:23.656Z,9.89
2024-03-07T14:09:40.769Z,9.84
2024-03-07T14:12:47.396Z,9.82
2024-03-07T14:15:59.309Z,9.83
2024-03-07T14:19:05.272Z,9.84
2024-03-07T14:22:05.779Z,9.82
2024-03-07T14:25:07.883Z,9.83
2024-03-07T14:27:50.423Z,9.83
2024-03-07T14:30:41.756Z,9.79
2024-03-07T14:33:18.393Z,9.77
2024-03-07T14:36:07.614Z,9.61
2024-03-07T14:38:53.763Z,9.49
2024-03-07T14:41:42.776Z,9.61
2024-03-07T14:44:16.932Z,9.62
2024-03-07T14:46:55.182Z,9.63
2024-03-07T14:49:27.529Z,9.48
2024-03-07T14:52:01.423Z,9.46
2024-03-07T14:54:34.291Z,9.52
2024-03-07T14:57:08.757Z,9.57
2024-03-07T14:59:42.096Z,9.48
2024-03-07T15:02:16.494Z,9.43
2024-03-07T15:04:48.514Z,9.45
2024-03-07T15:07:23.466Z,9.36
2024-03-07T15:09:58.842Z,9.32
2024-03-07T15:12:30.761Z,9.32
2024-03-07T15:15:10.976Z,9.25
2024-03-07T15:17:46.693Z,9.17
2024-03-07T15:20:24.392Z,9.10
2024-03-07T15:22:58.361Z,9.04
2024-03-07T15:25:31.169Z,9.00
2024-03-07T15:28:02.668Z,8.92
2024-03-07T15:30:36.356Z,8.80
2024-03-07T15:33:09.145Z,8.78
2024-03-07T15:35:41.263Z,8.69
2024-03-07T15:38:15.202Z,8.62
2024-03-07T15:40:47.133Z,8.55
2024-03-07T15:43:20.169Z,8.58
2024-03-07T15:45:53.533Z,8.55
2024-03-07T15:48:26.184Z,8.55
2024-03-07T15:50:58.808Z,8.46
2024-03-07T15:53:30.929Z,8.30
2024-03-07T15:56:03.036Z,8.32
2024-03-07T15:58:35.006Z,8.33
2024-03-07T16:01:07.586Z,8.30
2024-03-07T16:03:40.203Z,8.23
2024-03-07T16:06:12.208Z,8.21
2024-03-07T16:08:45.372Z,8.15
2024-03-07T16:11:25.451Z,8.07
2024-03-07T16:13:57.551Z,8.08
2024-03-07T16:16:29.395Z,8.02
2024-03-07T16:19:01.445Z,7.95
2024-03-07T16:21:33.501Z,7.92
2024-03-07T16:24:07.369Z,7.87
2024-03-07T16:26:39.347Z,7.79
2024-03-07T16:29:12.723Z,7.80
2024-03-07T16:31:45.665Z,7.74
2024-03-07T16:34:18.539Z,7.70
2024-03-07T16:36:53.481Z,7.59
2024-03-07T16:39:26.230Z,7.53
2024-03-07T16:41:56.964Z,7.43
2024-03-07T16:44:29.316Z,7.42
2024-03-07T16:47:02.781Z,7.36
2024-03-07T16:49:36.147Z,7.33
2024-03-07T16:52:10.276Z,7.32
2024-03-07T16:54:43.165Z,7.26
2024-03-07T16:57:16.326Z,7.18
2024-03-07T16:59:51.510Z,7.21
2024-03-07T17:02:27.592Z,7.20
2024-03-07T17:05:00.395Z,7.03
2024-03-07T17:07:32.534Z,7.00
2024-03-07T17:10:07.401Z,6.95
2024-03-07T17:12:39.805Z,6.91
2024-03-07T17:15:15.704Z,6.84
2024-03-07T17:17:50.031Z,6.87
2024-03-07T17:20:25.783Z,6.85
2024-03-07T17:22:59.954Z,6.86
2024-03-07T17:25:32.481Z,6.81
2024-03-07T17:28:04.912Z,6.73
2024-03-07T17:30:37.446Z,6.71
2024-03-07T17:33:10.002Z,6.65
2024-03-07T17:35:43.846Z,6.58
2024-03-07T17:38:16.218Z,6.53
2024-03-07T17:40:48.189Z,6.53
2024-03-07T17:43:20.063Z,6.56
2024-03-07T17:45:51.925Z,6.53
2024-03-07T17:48:26.825Z,6.54
2024-03-07T17:51:03.062Z,6.56
2024-03-07T17:53:35.113Z,6.52
2024-03-07T17:56:07.619Z,6.47
2024-03-07T17:58:39.605Z,6.45
2024-03-07T18:01:15.654Z,6.45
2024-03-07T18:03:48.307Z,6.32
2024-03-07T18:06:23.226Z,6.30
2024-03-07T18:09:00.601Z,6.32
2024-03-07T18:11:34.250Z,6.30
2024-03-07T18:14:06.684Z,6.23
2024-03-07T18:16:38.753Z,6.13
2024-03-07T18:19:11.209Z,6.02
2024-03-07T18:21:43.167Z,5.97
2024-03-07T18:24:16.018Z,5.93
2024-03-07T18:26:48.647Z,5.95
2024-03-07T18:29:21.421Z,5.93
2024-03-07T18:31:55.020Z,5.96
2024-03-07T18:34:26.913Z,5.96
2024-03-07T18:37:03.979Z,5.93
2024-03-07T18:39:37.294Z,5.90
2024-03-07T18:42:09.357Z,5.84
2024-03-07T18:44:41.763Z,5.70
2024-03-07T18:47:19.207Z,5.60
2024-03-07T18:49:52.120Z,5.56
2024-03-07T18:52:24.637Z,5.58
2024-03-07T18:54:57.942Z,5.44
2024-03-07T18:57:29.943Z,5.38
2024-03-07T19:00:05.710Z,5.39
2024-03-07T19:02:37.732Z,5.33
2024-03-07T19:05:13.705Z,5.30
2024-03-07T19:07:46.698Z,5.33
2024-03-07T19:10:19.475Z,5.24
2024-03-07T19:12:49.817Z,5.32
2024-03-07T19:15:44.142Z,5.33
2024-03-07T19:18:17.691Z,5.24
2024-03-07T19:20:50.857Z,5.09
2024-03-07T19:23:22.781Z,5.02
2024-03-07T19:25:56.300Z,5.02
2024-03-07T19:28:29.299Z,5.03
2024-03-07T19:31:01.632Z,5.09
2024-03-07T19:33:35.338Z,5.16
2024-03-07T19:36:14.599Z,5.22
2024-03-07T19:38:50.259Z,5.24
2024-03-07T19:41:24.311Z,5.20
2024-03-07T19:43:56.368Z,5.15
2024-03-07T19:46:29.327Z,5.12
2024-03-07T19:49:02.098Z,5.14
2024-03-07T19:51:34.485Z,5.07
2024-03-07T19:54:10.224Z,5.00
2024-03-07T19:56:42.988Z,4.86
2024-03-07T19:59:14.809Z,4.75
2024-03-07T20:01:47.430Z,4.76
2024-03-07T20:04:17.866Z,4.79
2024-03-07T20:06:49.780Z,4.85
2024-03-07T20:09:22.064Z,4.89
2024-03-07T20:11:55.397Z,4.83
2024-03-07T20:14:27.562Z,4.85
2024-03-07T20:16:59.550Z,4.78
2024-03-07T20:19:31.636Z,4.75
2024-03-07T20:22:03.544Z,4.69
2024-03-07T20:24:36.297Z,4.61
2024-03-07T20:27:06.806Z,4.68
2024-03-07T20:29:39.777Z,4.75
2024-03-07T20:32:11.820Z,4.78
2024-03-07T20:34:43.802Z,4.82
2024-03-07T20:37:15.747Z,4.77
2024-03-07T20:39:58.103Z,4.74
2024-03-07T20:42:38.659Z,4.69
2024-03-07T20:45:12.644Z,4.74
2024-03-07T20:47:46.434Z,4.74
2024-03-07T20:50:21.316Z,4.75
2024-03-07T20:52:54.557Z,4.64
2024-03-07T20:55:28.336Z,4.69
2024-03-07T20:58:02.452Z,4.67
2024-03-07T21:00:34.673Z,4.63
2024-03-07T21:03:07.864Z,4.64
2024-03-07T21:05:43.606Z,4.65
2024-03-07T21:08:17.244Z,4.66
2024-03-07T21:10:49.626Z,4.62
2024-03-07T21:13:22.469Z,4.66
2024-03-07T21:15:53.024Z,4.56
2024-03-07T21:18:26.290Z,4.52
2024-03-07T21:20:58.590Z,4.40
2024-03-07T21:23:30.637Z,4.39
2024-03-07T21:26:02.784Z,4.41
2024-03-07T21:28:34.627Z,4.41
2024-03-07T21:31:07.414Z,4.34
2024-03-07T21:33:40.499Z,4.36
2024-03-07T21:36:13.061Z,4.39
2024-03-07T21:38:45.414Z,4.38
2024-03-07T21:41:17.342Z,4.34
2024-03-07T21:43:49.179Z,4.37
2024-03-07T21:46:22.139Z,4.30
2024-03-07T21:48:57.204Z,4.35
2024-03-07T21:51:31.919Z,4.36
2024-03-07T21:54:05.073Z,4.23
2024-03-07T21:56:37.044Z,4.16
2024-03-07T21:59:10.174Z,4.24
2024-03-07T22:01:45.069Z,4.28
2024-03-07T22:04:16.860Z,4.29
2024-03-07T22:06:48.640Z,4.29
2024-03-07T22:09:20.560Z,4.24
2024-03-07T22:11:52.773Z,4.20
2024-03-07T22:14:24.729Z,4.05
2024-03-07T22:16:57.547Z,3.97
2024-03-07T22:19:29.449Z,3.93
2024-03-07T22:22:01.350Z,3.91
2024-03-07T22:24:33.366Z,3.89
2024-03-07T22:27:06.081Z,3.86
2024-03-07T22:29:38.204Z,3.88
2024-03-07T22:32:10.155Z,3.80
2024-03-07T22:34:43.799Z,3.80
2024-03-07T22:37:16.956Z,3.67
2024-03-07T22:39:49.919Z,3.69
2024-03-07T22:42:21.721Z,3.64
2024-03-07T22:44:53.701Z,3.67
2024-03-07T22:47:26.416Z,3.71
2024-03-07T22:50:05.482Z,3.69
2024-03-07T22:52:45.391Z,3.61
2024-03-07T22:55:18.452Z,3.52
2024-03-07T22:57:50.232Z,3.46
2024-03-07T23:00:25.527Z,3.44
2024-03-07T23:02:59.900Z,3.42
2024-03-07T23:05:33.351Z,3.34
2024-03-07T23:08:05.443Z,3.36
2024-03-07T23:10:37.517Z,3.39
2024-03-07T23:13:09.467Z,3.30
2024-03-07T23:15:41.464Z,3.24
2024-03-07T23:18:13.428Z,3.20
2024-03-07T23:20:47.294Z,3.08
2024-03-07T23:23:19.137Z,3.08
2024-03-07T23:25:51.066Z,3.20
2024-03-07T23:28:23.097Z,3.21
2024-03-07T23:30:55.011Z,3.18
2024-03-07T23:33:27.972Z,3.06
2024-03-07T23:36:01.735Z,2.91
2024-03-07T23:38:33.935Z,2.79
2024-03-07T23:41:06.851Z,2.70
2024-03-07T23:43:39.007Z,2.71
2024-03-07T23:46:13.890Z,2.78
2024-03-07T23:48:45.844Z,2.79
2024-03-07T23:51:19.703Z,2.91
2024-03-07T23:53:52.832Z,3.00
2024-03-07T23:56:24.675Z,3.06
2024-03-07T23:58:56.846Z,3.09
